sensor_id;sensor_type;location;lat;lon;timestamp;P1;durP1;ratioP1;P2;durP2;ratioP2
9178;SDS011;4624;48.126;11.546;2023-01-01T00:01:14;59.17;;;41.90;;
9178;SDS011;4624;48.126;11.546;2023-01-01T00:03:43;62.80;;;42.17;;
9178;SDS011;4624;48.126;11.546;2023-01-01T00:06:13;51.40;;;38.27;;
9178;SDS011;4624;48.126;11.546;2023-01-01T00:08:40;57.63;;;41.77;;
9178;SDS011;4624;48.126;11.546;2023-01-01T00:11:07;63.30;;;46.30;;
9178;SDS011;4624;48.126;11.546;2023-01-01T00:13:36;67.50;;;46.93;;
9178;SDS011;4624;48.126;11.546;2023-01-01T00:16:04;68.43;;;45.47;;
9178;SDS011;4624;48.126;11.546;2023-01-01T00:18:32;67.77;;;47.43;;
9178;SDS011;4624;48.126;11.546;2023-01-01T00:21:04;57.67;;;37.73;;
9178;SDS011;4624;48.126;11.546;2023-01-01T00:23:32;43.20;;;29.53;;
9178;SDS011;4624;48.126;11.546;2023-01-01T00:25:59;36.53;;;28.60;;
9178;SDS011;4624;48.126;11.546;2023-01-01T00:28:27;37.50;;;27.17;;
9178;SDS011;4624;48.126;11.546;2023-01-01T00:30:53;31.13;;;24.13;;
9178;SDS011;4624;48.126;11.546;2023-01-01T00:33:20;30.10;;;20.27;;
9178;SDS011;4624;48.126;11.546;2023-01-01T00:35:47;30.33;;;20.23;;
9178;SDS011;4624;48.126;11.546;2023-01-01T00:38:15;28.00;;;21.27;;
9178;SDS011;4624;48.126;11.546;2023-01-01T00:40:42;29.37;;;19.47;;
9178;SDS011;4624;48.126;11.546;2023-01-01T00:43:09;26.60;;;18.67;;
9178;SDS011;4624;48.126;11.546;2023-01-01T00:45:35;22.50;;;16.60;;
9178;SDS011;4624;48.126;11.546;2023-01-01T00:48:02;20.83;;;14.87;;
9178;SDS011;4624;48.126;11.546;2023-01-01T00:50:29;18.97;;;14.73;;
9178;SDS011;4624;48.126;11.546;2023-01-01T00:52:56;21.33;;;15.60;;
9178;SDS011;4624;48.126;11.546;2023-01-01T00:55:24;20.40;;;14.50;;
9178;SDS011;4624;48.126;11.546;2023-01-01T00:57:51;21.17;;;14.27;;
9178;SDS011;4624;48.126;11.546;2023-01-01T01:00:17;20.50;;;12.17;;
9178;SDS011;4624;48.126;11.546;2023-01-01T01:02:44;12.57;;;10.70;;
9178;SDS011;4624;48.126;11.546;2023-01-01T01:05:11;12.27;;;10.30;;
9178;SDS011;4624;48.126;11.546;2023-01-01T01:07:38;14.23;;;10.93;;
9178;SDS011;4624;48.126;11.546;2023-01-01T01:10:05;14.83;;;11.07;;
9178;SDS011;4624;48.126;11.546;2023-01-01T01:12:34;13.33;;;9.97;;
9178;SDS011;4624;48.126;11.546;2023-01-01T01:15:02;9.63;;;7.73;;
9178;SDS011;4624;48.126;11.546;2023-01-01T01:17:30;9.03;;;7.40;;
9178;SDS011;4624;48.126;11.546;2023-01-01T01:19:57;14.17;;;8.73;;
9178;SDS011;4624;48.126;11.546;2023-01-01T01:22:24;8.53;;;6.40;;
9178;SDS011;4624;48.126;11.546;2023-01-01T01:24:51;7.47;;;5.43;;
9178;SDS011;4624;48.126;11.546;2023-01-01T01:27:18;7.47;;;6.13;;
9178;SDS011;4624;48.126;11.546;2023-01-01T01:29:46;7.90;;;6.13;;
9178;SDS011;4624;48.126;11.546;2023-01-01T01:32:12;7.00;;;6.27;;
9178;SDS011;4624;48.126;11.546;2023-01-01T01:34:39;6.80;;;5.67;;
9178;SDS011;4624;48.126;11.546;2023-01-01T01:37:06;6.87;;;5.90;;
9178;SDS011;4624;48.126;11.546;2023-01-01T01:39:33;7.60;;;5.77;;
9178;SDS011;4624;48.126;11.546;2023-01-01T01:42:00;8.50;;;5.90;;
9178;SDS011;4624;48.126;11.546;2023-01-01T01:44:48;8.17;;;6.63;;
9178;SDS011;4624;48.126;11.546;2023-01-01T01:47:19;9.10;;;7.40;;
9178;SDS011;4624;48.126;11.546;2023-01-01T01:49:51;8.93;;;7.00;;
9178;SDS011;4624;48.126;11.546;2023-01-01T01:52:22;8.23;;;5.97;;
9178;SDS011;4624;48.126;11.546;2023-01-01T01:54:50;9.47;;;6.47;;
9178;SDS011;4624;48.126;11.546;2023-01-01T01:57:17;10.57;;;6.13;;
9178;SDS011;4624;48.126;11.546;2023-01-01T01:59:46;8.07;;;6.93;;
9178;SDS011;4624;48.126;11.546;2023-01-01T02:02:19;10.57;;;8.17;;
9178;SDS011;4624;48.126;11.546;2023-01-01T02:04:51;9.37;;;8.00;;
9178;SDS011;4624;48.126;11.546;2023-01-01T02:07:18;10.97;;;8.20;;
9178;SDS011;4624;48.126;11.546;2023-01-01T02:09:46;10.90;;;8.70;;
9178;SDS011;4624;48.126;11.546;2023-01-01T02:12:13;11.87;;;8.63;;
9178;SDS011;4624;48.126;11.546;2023-01-01T02:14:40;9.63;;;8.63;;
9178;SDS011;4624;48.126;11.546;2023-01-01T02:17:08;10.37;;;7.90;;
9178;SDS011;4624;48.126;11.546;2023-01-01T02:19:43;10.13;;;7.17;;
9178;SDS011;4624;48.126;11.546;2023-01-01T02:22:16;9.53;;;6.97;;
9178;SDS011;4624;48.126;11.546;2023-01-01T02:25:00;8.83;;;7.20;;
9178;SDS011;4624;48.126;11.546;2023-01-01T02:27:37;8.20;;;6.03;;
9178;SDS011;4624;48.126;11.546;2023-01-01T02:30:16;8.20;;;6.97;;
9178;SDS011;4624;48.126;11.546;2023-01-01T02:32:44;7.10;;;5.23;;
9178;SDS011;4624;48.126;11.546;2023-01-01T02:35:15;7.30;;;5.93;;
9178;SDS011;4624;48.126;11.546;2023-01-01T02:38:04;6.73;;;5.40;;
9178;SDS011;4624;48.126;11.546;2023-01-01T02:40:33;7.80;;;5.37;;
9178;SDS011;4624;48.126;11.546;2023-01-01T02:43:03;5.67;;;4.90;;
9178;SDS011;4624;48.126;11.546;2023-01-01T02:45:32;6.87;;;5.27;;
9178;SDS011;4624;48.126;11.546;2023-01-01T02:48:02;5.27;;;4.77;;
9178;SDS011;4624;48.126;11.546;2023-01-01T02:50:30;5.90;;;4.97;;
9178;SDS011;4624;48.126;11.546;2023-01-01T02:53:01;5.03;;;4.37;;
9178;SDS011;4624;48.126;11.546;2023-01-01T02:55:35;5.37;;;4.57;;
9178;SDS011;4624;48.126;11.546;2023-01-01T02:58:14;5.50;;;4.90;;
9178;SDS011;4624;48.126;11.546;2023-01-01T03:01:08;5.73;;;4.63;;
9178;SDS011;4624;48.126;11.546;2023-01-01T03:03:40;6.10;;;5.03;;
9178;SDS011;4624;48.126;11.546;2023-01-01T03:06:16;6.07;;;5.20;;
9178;SDS011;4624;48.126;11.546;2023-01-01T03:08:52;8.80;;;5.40;;
9178;SDS011;4624;48.126;11.546;2023-01-01T03:11:34;6.30;;;5.40;;
9178;SDS011;4624;48.126;11.546;2023-01-01T03:14:11;6.23;;;5.33;;
9178;SDS011;4624;48.126;11.546;2023-01-01T03:16:47;6.57;;;5.60;;
9178;SDS011;4624;48.126;11.546;2023-01-01T03:19:16;6.97;;;5.30;;
9178;SDS011;4624;48.126;11.546;2023-01-01T03:21:47;8.73;;;5.83;;
9178;SDS011;4624;48.126;11.546;2023-01-01T03:24:17;9.27;;;6.23;;
9178;SDS011;4624;48.126;11.546;2023-01-01T03:26:49;7.43;;;5.80;;
9178;SDS011;4624;48.126;11.546;2023-01-01T03:29:19;9.37;;;6.90;;
9178;SDS011;4624;48.126;11.546;2023-01-01T03:31:49;8.43;;;6.57;;
9178;SDS011;4624;48.126;11.546;2023-01-01T03:34:20;6.97;;;6.27;;
9178;SDS011;4624;48.126;11.546;2023-01-01T03:36:51;8.27;;;5.60;;
9178;SDS011;4624;48.126;11.546;2023-01-01T03:39:23;8.93;;;6.37;;
9178;SDS011;4624;48.126;11.546;2023-01-01T03:41:55;9.53;;;6.43;;
9178;SDS011;4624;48.126;11.546;2023-01-01T03:44:28;8.13;;;6.83;;
9178;SDS011;4624;48.126;11.546;2023-01-01T03:47:00;8.87;;;7.00;;
9178;SDS011;4624;48.126;11.546;2023-01-01T03:49:29;9.67;;;6.67;;
9178;SDS011;4624;48.126;11.546;2023-01-01T03:51:58;9.60;;;7.13;;
9178;SDS011;4624;48.126;11.546;2023-01-01T03:54:32;10.40;;;7.30;;
9178;SDS011;4624;48.126;11.546;2023-01-01T03:57:09;13.17;;;7.93;;
9178;SDS011;4624;48.126;11.546;2023-01-01T03:59:44;10.00;;;7.00;;
9178;SDS011;4624;48.126;11.546;2023-01-01T04:02:19;11.60;;;8.10;;
9178;SDS011;4624;48.126;11.546;2023-01-01T04:04:50;10.93;;;8.27;;
9178;SDS011;4624;48.126;11.546;2023-01-01T04:07:18;11.53;;;8.47;;
9178;SDS011;4624;48.126;11.546;2023-01-01T04:09:47;10.07;;;8.10;;
9178;SDS011;4624;48.126;11.546;2023-01-01T04:12:16;9.97;;;8.40;;
9178;SDS011;4624;48.126;11.546;2023-01-01T04:14:44;12.13;;;9.47;;
9178;SDS011;4624;48.126;11.546;2023-01-01T04:17:10;13.93;;;10.03;;
9178;SDS011;4624;48.126;11.546;2023-01-01T04:19:39;14.17;;;10.73;;
9178;SDS011;4624;48.126;11.546;2023-01-01T04:22:06;12.20;;;9.70;;
9178;SDS011;4624;48.126;11.546;2023-01-01T04:24:33;12.03;;;9.33;;
9178;SDS011;4624;48.126;11.546;2023-01-01T04:27:00;11.73;;;9.20;;
9178;SDS011;4624;48.126;11.546;2023-01-01T04:29:27;12.97;;;10.07;;
9178;SDS011;4624;48.126;11.546;2023-01-01T04:31:53;11.90;;;9.57;;
9178;SDS011;4624;48.126;11.546;2023-01-01T04:34:20;13.13;;;9.63;;
9178;SDS011;4624;48.126;11.546;2023-01-01T04:36:48;13.23;;;10.37;;
9178;SDS011;4624;48.126;11.546;2023-01-01T04:39:15;16.17;;;10.37;;
9178;SDS011;4624;48.126;11.546;2023-01-01T04:41:41;12.90;;;9.73;;
9178;SDS011;4624;48.126;11.546;2023-01-01T04:44:08;13.57;;;10.30;;
9178;SDS011;4624;48.126;11.546;2023-01-01T04:46:35;14.10;;;9.90;;
9178;SDS011;4624;48.126;11.546;2023-01-01T04:49:02;14.67;;;10.23;;
9178;SDS011;4624;48.126;11.546;2023-01-01T04:51:28;14.23;;;11.20;;
9178;SDS011;4624;48.126;11.546;2023-01-01T04:53:57;15.10;;;10.90;;
9178;SDS011;4624;48.126;11.546;2023-01-01T04:56:24;15.00;;;11.17;;
9178;SDS011;4624;48.126;11.546;2023-01-01T04:58:51;14.23;;;10.23;;
9178;SDS011;4624;48.126;11.546;2023-01-01T05:01:18;13.00;;;10.23;;
9178;SDS011;4624;48.126;11.546;2023-01-01T05:03:47;15.33;;;11.20;;
9178;SDS011;4624;48.126;11.546;2023-01-01T05:06:14;13.67;;;11.03;;
9178;SDS011;4624;48.126;11.546;2023-01-01T05:08:42;13.97;;;10.37;;
9178;SDS011;4624;48.126;11.546;2023-01-01T05:11:12;14.83;;;10.70;;
9178;SDS011;4624;48.126;11.546;2023-01-01T05:13:40;13.07;;;9.57;;
9178;SDS011;4624;48.126;11.546;2023-01-01T05:16:09;14.07;;;10.60;;
9178;SDS011;4624;48.126;11.546;2023-01-01T05:21:05;11.50;;;8.80;;
9178;SDS011;4624;48.126;11.546;2023-01-01T05:23:34;14.03;;;9.13;;
9178;SDS011;4624;48.126;11.546;2023-01-01T05:26:06;10.13;;;8.57;;
9178;SDS011;4624;48.126;11.546;2023-01-01T05:28:36;9.87;;;8.47;;
9178;SDS011;4624;48.126;11.546;2023-01-01T05:31:04;9.63;;;7.90;;
9178;SDS011;4624;48.126;11.546;2023-01-01T05:33:31;9.90;;;8.03;;
9178;SDS011;4624;48.126;11.546;2023-01-01T05:35:58;10.03;;;7.40;;
9178;SDS011;4624;48.126;11.546;2023-01-01T05:38:25;7.83;;;6.87;;
9178;SDS011;4624;48.126;11.546;2023-01-01T05:40:52;8.33;;;6.67;;
9178;SDS011;4624;48.126;11.546;2023-01-01T05:43:18;8.77;;;7.33;;
9178;SDS011;4624;48.126;11.546;2023-01-01T05:45:46;8.40;;;6.20;;
9178;SDS011;4624;48.126;11.546;2023-01-01T05:48:13;7.23;;;5.30;;
9178;SDS011;4624;48.126;11.546;2023-01-01T05:50:40;7.17;;;4.93;;
9178;SDS011;4624;48.126;11.546;2023-01-01T05:53:07;6.90;;;5.20;;
9178;SDS011;4624;48.126;11.546;2023-01-01T05:55:34;5.30;;;4.60;;
9178;SDS011;4624;48.126;11.546;2023-01-01T05:58:00;6.17;;;4.50;;
9178;SDS011;4624;48.126;11.546;2023-01-01T06:00:27;5.17;;;4.33;;
9178;SDS011;4624;48.126;11.546;2023-01-01T06:02:55;4.17;;;3.50;;
9178;SDS011;4624;48.126;11.546;2023-01-01T06:05:22;5.23;;;4.43;;
9178;SDS011;4624;48.126;11.546;2023-01-01T06:07:48;5.50;;;3.93;;
9178;SDS011;4624;48.126;11.546;2023-01-01T06:10:15;3.67;;;3.10;;
9178;SDS011;4624;48.126;11.546;2023-01-01T06:12:42;4.10;;;3.47;;
9178;SDS011;4624;48.126;11.546;2023-01-01T06:15:09;5.33;;;4.17;;
9178;SDS011;4624;48.126;11.546;2023-01-01T06:17:36;3.80;;;3.30;;
9178;SDS011;4624;48.126;11.546;2023-01-01T06:20:04;5.73;;;3.10;;
9178;SDS011;4624;48.126;11.546;2023-01-01T06:22:34;3.30;;;2.87;;
9178;SDS011;4624;48.126;11.546;2023-01-01T06:25:01;4.50;;;3.17;;
9178;SDS011;4624;48.126;11.546;2023-01-01T06:27:28;2.83;;;2.60;;
9178;SDS011;4624;48.126;11.546;2023-01-01T06:29:54;3.87;;;3.13;;
9178;SDS011;4624;48.126;11.546;2023-01-01T06:32:21;3.70;;;3.40;;
9178;SDS011;4624;48.126;11.546;2023-01-01T06:34:48;3.67;;;2.50;;
9178;SDS011;4624;48.126;11.546;2023-01-01T06:37:16;4.03;;;3.10;;
9178;SDS011;4624;48.126;11.546;2023-01-01T06:39:43;3.10;;;2.80;;
9178;SDS011;4624;48.126;11.546;2023-01-01T06:42:10;3.80;;;3.17;;
9178;SDS011;4624;48.126;11.546;2023-01-01T06:44:37;4.83;;;3.47;;
9178;SDS011;4624;48.126;11.546;2023-01-01T06:47:04;4.60;;;3.57;;
9178;SDS011;4624;48.126;11.546;2023-01-01T06:49:30;3.67;;;3.23;;
9178;SDS011;4624;48.126;11.546;2023-01-01T06:51:57;4.97;;;3.23;;
9178;SDS011;4624;48.126;11.546;2023-01-01T06:54:25;4.33;;;3.50;;
9178;SDS011;4624;48.126;11.546;2023-01-01T06:56:52;4.27;;;3.50;;
9178;SDS011;4624;48.126;11.546;2023-01-01T06:59:19;5.60;;;3.70;;
9178;SDS011;4624;48.126;11.546;2023-01-01T07:01:45;4.37;;;3.30;;
9178;SDS011;4624;48.126;11.546;2023-01-01T07:04:13;3.73;;;3.23;;
9178;SDS011;4624;48.126;11.546;2023-01-01T07:06:41;4.33;;;3.90;;
9178;SDS011;4624;48.126;11.546;2023-01-01T07:09:08;4.30;;;3.70;;
9178;SDS011;4624;48.126;11.546;2023-01-01T07:11:36;4.27;;;3.40;;
9178;SDS011;4624;48.126;11.546;2023-01-01T07:14:03;4.50;;;3.10;;
9178;SDS011;4624;48.126;11.546;2023-01-01T07:16:29;4.50;;;3.70;;
9178;SDS011;4624;48.126;11.546;2023-01-01T07:18:56;3.37;;;3.07;;
9178;SDS011;4624;48.126;11.546;2023-01-01T07:21:24;4.07;;;3.30;;
9178;SDS011;4624;48.126;11.546;2023-01-01T07:23:53;3.10;;;2.77;;
9178;SDS011;4624;48.126;11.546;2023-01-01T07:26:21;3.37;;;2.87;;
9178;SDS011;4624;48.126;11.546;2023-01-01T07:28:50;5.13;;;3.50;;
9178;SDS011;4624;48.126;11.546;2023-01-01T07:31:17;3.97;;;2.93;;
9178;SDS011;4624;48.126;11.546;2023-01-01T07:33:43;4.60;;;3.40;;
9178;SDS011;4624;48.126;11.546;2023-01-01T07:36:10;4.53;;;3.30;;
9178;SDS011;4624;48.126;11.546;2023-01-01T07:38:38;4.80;;;4.23;;
9178;SDS011;4624;48.126;11.546;2023-01-01T07:41:05;4.77;;;3.37;;
9178;SDS011;4624;48.126;11.546;2023-01-01T07:43:32;4.40;;;2.90;;
9178;SDS011;4624;48.126;11.546;2023-01-01T07:46:00;4.10;;;3.10;;
9178;SDS011;4624;48.126;11.546;2023-01-01T07:48:27;3.77;;;3.30;;
9178;SDS011;4624;48.126;11.546;2023-01-01T07:50:54;3.60;;;2.80;;
9178;SDS011;4624;48.126;11.546;2023-01-01T07:53:21;3.93;;;3.10;;
9178;SDS011;4624;48.126;11.546;2023-01-01T07:55:48;3.57;;;2.90;;
9178;SDS011;4624;48.126;11.546;2023-01-01T07:58:14;5.10;;;3.07;;
9178;SDS011;4624;48.126;11.546;2023-01-01T08:00:44;6.27;;;3.73;;
9178;SDS011;4624;48.126;11.546;2023-01-01T08:03:12;5.43;;;3.30;;
9178;SDS011;4624;48.126;11.546;2023-01-01T08:05:39;3.43;;;3.13;;
9178;SDS011;4624;48.126;11.546;2023-01-01T08:08:07;3.50;;;3.13;;
9178;SDS011;4624;48.126;11.546;2023-01-01T08:10:34;5.17;;;3.37;;
9178;SDS011;4624;48.126;11.546;2023-01-01T08:13:02;5.77;;;3.90;;
9178;SDS011;4624;48.126;11.546;2023-01-01T08:15:29;4.37;;;3.93;;
9178;SDS011;4624;48.126;11.546;2023-01-01T08:17:57;5.87;;;3.50;;
9178;SDS011;4624;48.126;11.546;2023-01-01T08:20:26;5.23;;;4.33;;
9178;SDS011;4624;48.126;11.546;2023-01-01T08:22:54;4.10;;;3.80;;
9178;SDS011;4624;48.126;11.546;2023-01-01T08:25:21;4.83;;;3.47;;
9178;SDS011;4624;48.126;11.546;2023-01-01T08:27:48;3.93;;;3.53;;
9178;SDS011;4624;48.126;11.546;2023-01-01T08:30:15;7.77;;;5.93;;
9178;SDS011;4624;48.126;11.546;2023-01-01T08:32:42;5.50;;;4.33;;
9178;SDS011;4624;48.126;11.546;2023-01-01T08:35:09;3.63;;;3.13;;
9178;SDS011;4624;48.126;11.546;2023-01-01T08:37:37;4.40;;;3.60;;
9178;SDS011;4624;48.126;11.546;2023-01-01T08:40:04;5.73;;;3.30;;
9178;SDS011;4624;48.126;11.546;2023-01-01T08:42:32;4.63;;;2.70;;
9178;SDS011;4624;48.126;11.546;2023-01-01T08:44:58;3.60;;;2.93;;
9178;SDS011;4624;48.126;11.546;2023-01-01T08:47:25;3.97;;;2.77;;
9178;SDS011;4624;48.126;11.546;2023-01-01T08:49:52;3.60;;;2.83;;
9178;SDS011;4624;48.126;11.546;2023-01-01T08:52:19;3.73;;;2.77;;
9178;SDS011;4624;48.126;11.546;2023-01-01T08:54:48;2.80;;;2.50;;
9178;SDS011;4624;48.126;11.546;2023-01-01T08:57:14;3.20;;;2.47;;
9178;SDS011;4624;48.126;11.546;2023-01-01T08:59:41;2.30;;;2.10;;
9178;SDS011;4624;48.126;11.546;2023-01-01T09:02:08;2.50;;;1.60;;
9178;SDS011;4624;48.126;11.546;2023-01-01T09:04:36;2.83;;;2.30;;
9178;SDS011;4624;48.126;11.546;2023-01-01T09:07:03;2.00;;;1.83;;
9178;SDS011;4624;48.126;11.546;2023-01-01T09:09:29;1.80;;;1.60;;
9178;SDS011;4624;48.126;11.546;2023-01-01T09:11:58;1.63;;;1.53;;
9178;SDS011;4624;48.126;11.546;2023-01-01T09:14:29;2.50;;;1.73;;
9178;SDS011;4624;48.126;11.546;2023-01-01T09:16:57;2.63;;;1.43;;
9178;SDS011;4624;48.126;11.546;2023-01-01T09:19:24;1.73;;;1.63;;
9178;SDS011;4624;48.126;11.546;2023-01-01T09:21:52;1.60;;;1.50;;
9178;SDS011;4624;48.126;11.546;2023-01-01T09:24:18;1.77;;;1.30;;
9178;SDS011;4624;48.126;11.546;2023-01-01T09:26:45;1.73;;;1.63;;
9178;SDS011;4624;48.126;11.546;2023-01-01T09:29:13;1.73;;;1.60;;
9178;SDS011;4624;48.126;11.546;2023-01-01T09:31:42;1.43;;;1.33;;
9178;SDS011;4624;48.126;11.546;2023-01-01T09:34:09;3.17;;;1.60;;
9178;SDS011;4624;48.126;11.546;2023-01-01T09:36:36;1.50;;;1.40;;
9178;SDS011;4624;48.126;11.546;2023-01-01T09:39:03;1.53;;;1.43;;
9178;SDS011;4624;48.126;11.546;2023-01-01T09:44:25;1.63;;;1.43;;
9178;SDS011;4624;48.126;11.546;2023-01-01T09:47:04;2.07;;;1.50;;
9178;SDS011;4624;48.126;11.546;2023-01-01T09:49:43;2.50;;;1.70;;
9178;SDS011;4624;48.126;11.546;2023-01-01T09:52:12;3.23;;;1.47;;
9178;SDS011;4624;48.126;11.546;2023-01-01T09:54:42;1.50;;;1.30;;
9178;SDS011;4624;48.126;11.546;2023-01-01T09:57:15;1.97;;;1.60;;
9178;SDS011;4624;48.126;11.546;2023-01-01T09:59:43;1.40;;;1.30;;
9178;SDS011;4624;48.126;11.546;2023-01-01T10:02:12;1.60;;;1.50;;
9178;SDS011;4624;48.126;11.546;2023-01-01T10:04:58;2.73;;;1.60;;
9178;SDS011;4624;48.126;11.546;2023-01-01T10:07:35;2.87;;;1.90;;
9178;SDS011;4624;48.126;11.546;2023-01-01T10:10:10;1.50;;;1.40;;
9178;SDS011;4624;48.126;11.546;2023-01-01T10:12:50;1.93;;;1.47;;
9178;SDS011;4624;48.126;11.546;2023-01-01T10:15:23;1.70;;;1.60;;
9178;SDS011;4624;48.126;11.546;2023-01-01T10:17:54;2.55;;;1.83;;
9178;SDS011;4624;48.126;11.546;2023-01-01T10:20:25;2.10;;;1.60;;
9178;SDS011;4624;48.126;11.546;2023-01-01T10:22:56;1.83;;;1.58;;
9178;SDS011;4624;48.126;11.546;2023-01-01T10:25:26;1.45;;;1.35;;
9178;SDS011;4624;48.126;11.546;2023-01-01T10:27:58;1.27;;;1.17;;
9178;SDS011;4624;48.126;11.546;2023-01-01T10:30:28;1.50;;;1.40;;
9178;SDS011;4624;48.126;11.546;2023-01-01T10:32:56;1.33;;;1.15;;
9178;SDS011;4624;48.126;11.546;2023-01-01T10:35:24;2.05;;;1.23;;
9178;SDS011;4624;48.126;11.546;2023-01-01T10:38:01;1.20;;;1.10;;
9178;SDS011;4624;48.126;11.546;2023-01-01T10:40:29;1.55;;;1.40;;
9178;SDS011;4624;48.126;11.546;2023-01-01T10:42:57;1.17;;;1.08;;
9178;SDS011;4624;48.126;11.546;2023-01-01T10:45:28;1.55;;;1.20;;
9178;SDS011;4624;48.126;11.546;2023-01-01T10:50:43;0.90;;;0.90;;
9178;SDS011;4624;48.126;11.546;2023-01-01T10:53:20;1.00;;;0.93;;
9178;SDS011;4624;48.126;11.546;2023-01-01T10:55:57;1.17;;;1.08;;
9178;SDS011;4624;48.126;11.546;2023-01-01T10:58:33;0.98;;;0.90;;
9178;SDS011;4624;48.126;11.546;2023-01-01T11:01:07;1.23;;;1.00;;
9178;SDS011;4624;48.126;11.546;2023-01-01T11:03:35;1.20;;;1.05;;
9178;SDS011;4624;48.126;11.546;2023-01-01T11:06:04;1.40;;;1.30;;
9178;SDS011;4624;48.126;11.546;2023-01-01T11:08:36;1.20;;;1.02;;
9178;SDS011;4624;48.126;11.546;2023-01-01T11:11:05;0.80;;;0.80;;
9178;SDS011;4624;48.126;11.546;2023-01-01T11:13:42;1.05;;;0.95;;
9178;SDS011;4624;48.126;11.546;2023-01-01T11:16:15;0.90;;;0.88;;
9178;SDS011;4624;48.126;11.546;2023-01-01T11:18:42;1.10;;;1.00;;
9178;SDS011;4624;48.126;11.546;2023-01-01T11:21:09;1.52;;;1.10;;
9178;SDS011;4624;48.126;11.546;2023-01-01T11:23:45;1.52;;;1.10;;
9178;SDS011;4624;48.126;11.546;2023-01-01T11:26:18;1.25;;;0.93;;
9178;SDS011;4624;48.126;11.546;2023-01-01T11:28:58;5.43;;;3.40;;
9178;SDS011;4624;48.126;11.546;2023-01-01T11:31:28;1.88;;;1.00;;
9178;SDS011;4624;48.126;11.546;2023-01-01T11:33:59;0.80;;;0.80;;
9178;SDS011;4624;48.126;11.546;2023-01-01T11:36:26;1.17;;;1.07;;
9178;SDS011;4624;48.126;11.546;2023-01-01T11:39:04;1.88;;;1.42;;
9178;SDS011;4624;48.126;11.546;2023-01-01T11:41:48;0.80;;;0.80;;
9178;SDS011;4624;48.126;11.546;2023-01-01T11:44:22;1.60;;;0.83;;
9178;SDS011;4624;48.126;11.546;2023-01-01T11:47:01;1.90;;;0.90;;
9178;SDS011;4624;48.126;11.546;2023-01-01T11:49:29;1.20;;;0.90;;
9178;SDS011;4624;48.126;11.546;2023-01-01T11:51:57;1.13;;;0.70;;
9178;SDS011;4624;48.126;11.546;2023-01-01T11:54:28;1.03;;;0.70;;
9178;SDS011;4624;48.126;11.546;2023-01-01T11:56:57;0.73;;;0.70;;
9178;SDS011;4624;48.126;11.546;2023-01-01T11:59:31;1.27;;;0.93;;
9178;SDS011;4624;48.126;11.546;2023-01-01T12:02:10;0.73;;;0.70;;
9178;SDS011;4624;48.126;11.546;2023-01-01T12:04:42;1.02;;;0.70;;
9178;SDS011;4624;48.126;11.546;2023-01-01T12:07:13;0.68;;;0.68;;
9178;SDS011;4624;48.126;11.546;2023-01-01T12:09:43;1.17;;;1.07;;
9178;SDS011;4624;48.126;11.546;2023-01-01T12:12:17;0.50;;;0.50;;
9178;SDS011;4624;48.126;11.546;2023-01-01T12:14:51;0.43;;;0.43;;
9178;SDS011;4624;48.126;11.546;2023-01-01T12:17:26;2.33;;;0.70;;
9178;SDS011;4624;48.126;11.546;2023-01-01T12:19:59;1.35;;;1.00;;
9178;SDS011;4624;48.126;11.546;2023-01-01T12:22:29;1.88;;;1.20;;
9178;SDS011;4624;48.126;11.546;2023-01-01T12:24:56;1.60;;;1.27;;
9178;SDS011;4624;48.126;11.546;2023-01-01T12:27:31;1.00;;;1.00;;
9178;SDS011;4624;48.126;11.546;2023-01-01T12:30:10;0.90;;;0.90;;
9178;SDS011;4624;48.126;11.546;2023-01-01T12:32:54;3.03;;;1.02;;
9178;SDS011;4624;48.126;11.546;2023-01-01T12:35:48;1.20;;;1.10;;
9178;SDS011;4624;48.126;11.546;2023-01-01T12:38:33;1.40;;;1.30;;
9178;SDS011;4624;48.126;11.546;2023-01-01T12:41:12;1.20;;;1.10;;
9178;SDS011;4624;48.126;11.546;2023-01-01T12:43:51;1.20;;;1.10;;
9178;SDS011;4624;48.126;11.546;2023-01-01T12:46:29;1.20;;;1.10;;
9178;SDS011;4624;48.126;11.546;2023-01-01T12:49:14;0.82;;;0.82;;
9178;SDS011;4624;48.126;11.546;2023-01-01T12:51:55;2.15;;;1.20;;
9178;SDS011;4624;48.126;11.546;2023-01-01T12:54:37;1.00;;;0.90;;
9178;SDS011;4624;48.126;11.546;2023-01-01T12:57:38;2.13;;;1.23;;
9178;SDS011;4624;48.126;11.546;2023-01-01T13:00:11;1.00;;;0.90;;
9178;SDS011;4624;48.126;11.546;2023-01-01T13:02:40;1.20;;;1.10;;
9178;SDS011;4624;48.126;11.546;2023-01-01T13:05:17;1.60;;;1.20;;
9178;SDS011;4624;48.126;11.546;2023-01-01T13:07:49;1.25;;;0.90;;
9178;SDS011;4624;48.126;11.546;2023-01-01T13:10:23;0.82;;;0.80;;
9178;SDS011;4624;48.126;11.546;2023-01-01T13:12:52;1.00;;;0.90;;
9178;SDS011;4624;48.126;11.546;2023-01-01T13:18:19;1.35;;;1.00;;
9178;SDS011;4624;48.126;11.546;2023-01-01T13:21:02;2.63;;;1.20;;
9178;SDS011;4624;48.126;11.546;2023-01-01T13:23:48;1.05;;;0.82;;
9178;SDS011;4624;48.126;11.546;2023-01-01T13:32:10;1.03;;;0.60;;
9178;SDS011;4624;48.126;11.546;2023-01-01T13:34:40;1.57;;;0.90;;
9178;SDS011;4624;48.126;11.546;2023-01-01T13:43:16;1.37;;;0.90;;
9178;SDS011;4624;48.126;11.546;2023-01-01T13:45:45;1.57;;;1.07;;
9178;SDS011;4624;48.126;11.546;2023-01-01T13:48:21;0.80;;;0.80;;
9178;SDS011;4624;48.126;11.546;2023-01-01T13:51:17;0.70;;;0.63;;
9178;SDS011;4624;48.126;11.546;2023-01-01T13:54:24;0.87;;;0.87;;
9178;SDS011;4624;48.126;11.546;2023-01-01T13:57:13;1.00;;;0.70;;
9178;SDS011;4624;48.126;11.546;2023-01-01T13:59:59;1.30;;;0.60;;
9178;SDS011;4624;48.126;11.546;2023-01-01T14:02:39;0.80;;;0.70;;
9178;SDS011;4624;48.126;11.546;2023-01-01T14:05:12;0.97;;;0.83;;
9178;SDS011;4624;48.126;11.546;2023-01-01T14:07:42;2.40;;;0.93;;
9178;SDS011;4624;48.126;11.546;2023-01-01T14:10:16;1.13;;;0.70;;
9178;SDS011;4624;48.126;11.546;2023-01-01T14:12:46;1.17;;;0.73;;
9178;SDS011;4624;48.126;11.546;2023-01-01T14:15:14;1.30;;;1.00;;
9178;SDS011;4624;48.126;11.546;2023-01-01T14:17:42;0.80;;;0.80;;
9178;SDS011;4624;48.126;11.546;2023-01-01T14:20:12;1.83;;;1.10;;
9178;SDS011;4624;48.126;11.546;2023-01-01T14:22:42;1.30;;;0.83;;
9178;SDS011;4624;48.126;11.546;2023-01-01T14:25:12;0.80;;;0.77;;
9178;SDS011;4624;48.126;11.546;2023-01-01T14:27:45;1.70;;;0.90;;
9178;SDS011;4624;48.126;11.546;2023-01-01T14:30:14;1.63;;;0.90;;
9178;SDS011;4624;48.126;11.546;2023-01-01T14:32:42;1.23;;;0.93;;
9178;SDS011;4624;48.126;11.546;2023-01-01T14:35:13;2.40;;;0.90;;
9178;SDS011;4624;48.126;11.546;2023-01-01T14:37:41;1.73;;;1.00;;
9178;SDS011;4624;48.126;11.546;2023-01-01T14:40:17;0.90;;;0.90;;
9178;SDS011;4624;48.126;11.546;2023-01-01T14:42:52;1.80;;;1.10;;
9178;SDS011;4624;48.126;11.546;2023-01-01T14:45:22;1.53;;;1.17;;
9178;SDS011;4624;48.126;11.546;2023-01-01T14:47:50;1.83;;;1.40;;
9178;SDS011;4624;48.126;11.546;2023-01-01T14:50:21;3.50;;;1.20;;
9178;SDS011;4624;48.126;11.546;2023-01-01T14:52:52;2.53;;;0.90;;
9178;SDS011;4624;48.126;11.546;2023-01-01T14:55:23;1.33;;;1.17;;
9178;SDS011;4624;48.126;11.546;2023-01-01T14:57:54;1.37;;;0.97;;
9178;SDS011;4624;48.126;11.546;2023-01-01T15:00:24;2.90;;;1.10;;
9178;SDS011;4624;48.126;11.546;2023-01-01T15:02:53;1.73;;;1.23;;
9178;SDS011;4624;48.126;11.546;2023-01-01T15:05:26;1.83;;;1.10;;
9178;SDS011;4624;48.126;11.546;2023-01-01T15:07:55;3.63;;;1.63;;
9178;SDS011;4624;48.126;11.546;2023-01-01T15:10:25;1.40;;;1.20;;
9178;SDS011;4624;48.126;11.546;2023-01-01T15:12:53;1.00;;;0.90;;
9178;SDS011;4624;48.126;11.546;2023-01-01T15:15:36;1.60;;;1.00;;
9178;SDS011;4624;48.126;11.546;2023-01-01T15:18:05;1.73;;;1.03;;
9178;SDS011;4624;48.126;11.546;2023-01-01T15:20:32;1.40;;;0.90;;
9178;SDS011;4624;48.126;11.546;2023-01-01T15:23:01;1.43;;;1.00;;
9178;SDS011;4624;48.126;11.546;2023-01-01T15:25:30;1.67;;;1.17;;
9178;SDS011;4624;48.126;11.546;2023-01-01T15:28:00;2.37;;;1.30;;
9178;SDS011;4624;48.126;11.546;2023-01-01T15:30:28;2.30;;;1.30;;
9178;SDS011;4624;48.126;11.546;2023-01-01T15:33:04;1.73;;;1.40;;
9178;SDS011;4624;48.126;11.546;2023-01-01T15:35:32;1.90;;;1.40;;
9178;SDS011;4624;48.126;11.546;2023-01-01T15:38:02;1.17;;;1.07;;
9178;SDS011;4624;48.126;11.546;2023-01-01T15:40:36;1.30;;;1.10;;